createdAt,value
2019-04-22T00:01:21.560Z,77.90
2019-04-22T00:03:55.318Z,77.90
2019-04-22T00:06:44.419Z,78.60
2019-04-22T00:09:24.142Z,77.50
2019-04-22T00:12:06.106Z,77.40
2019-04-22T00:14:28.334Z,76.10
2019-04-22T00:17:19.985Z,75.30
2019-04-22T00:19:45.665Z,77.20
2019-04-22T00:22:22.111Z,77.10
2019-04-22T00:24:54.743Z,76.90
2019-04-22T00:27:32.059Z,76.70
2019-04-22T00:32:36.316Z,76.50
2019-04-22T00:35:18.259Z,74.60
2019-04-22T00:37:57.003Z,71.50
2019-04-22T00:40:36.620Z,75.30
2019-04-22T00:43:06.790Z,76.40
2019-04-22T00:48:21.006Z,74.50
2019-04-22T00:50:55.463Z,74.10
2019-04-22T00:53:23.983Z,76.00
2019-04-22T00:58:41.163Z,75.30
2019-04-22T01:01:19.194Z,75.50
2019-04-22T01:03:58.425Z,70.90
2019-04-22T01:06:29.126Z,73.20
2019-04-22T01:11:33.265Z,74.60
2019-04-22T01:14:06.660Z,75.60
2019-04-22T01:16:45.003Z,73.80
2019-04-22T01:19:23.601Z,75.10
2019-04-22T01:22:12.959Z,74.80
2019-04-22T01:24:31.066Z,72.70
2019-04-22T01:26:58.242Z,73.90
2019-04-22T01:29:32.163Z,64.70
2019-04-22T01:31:52.675Z,72.30
2019-04-22T01:34:40.092Z,69.70
2019-04-22T01:37:21.740Z,70.70
2019-04-22T01:40:04.522Z,60.90
2019-04-22T01:42:35.882Z,60.00
2019-04-22T01:45:06.698Z,59.20
2019-04-22T01:47:44.141Z,70.40
2019-04-22T01:50:23.972Z,61.40
2019-04-22T01:52:52.072Z,61.40
2019-04-22T01:57:57.606Z,61.60
2019-04-22T02:00:38.316Z,57.20
2019-04-22T02:03:12.828Z,66.90
2019-04-22T02:05:44.197Z,54.50
2019-04-22T02:08:25.292Z,66.10
2019-04-22T02:10:54.820Z,65.50
2019-04-22T02:13:29.119Z,64.10
2019-04-22T02:16:05.711Z,64.80
2019-04-22T02:18:39.386Z,55.40
2019-04-22T02:21:07.280Z,61.80
2019-04-22T02:26:26.044Z,53.70
2019-04-22T02:31:35.932Z,57.70
2019-04-22T02:34:22.230Z,54.40
2019-04-22T02:36:41.137Z,62.30
2019-04-22T02:39:11.833Z,62.10
2019-04-22T02:44:20.364Z,62.00
2019-04-22T02:49:31.195Z,62.70
2019-04-22T02:52:14.547Z,61.30
2019-04-22T02:57:49.411Z,61.00
2019-04-22T03:00:29.379Z,59.90
2019-04-22T03:05:45.509Z,57.40
2019-04-22T03:08:36.717Z,57.30
2019-04-22T03:13:30.789Z,60.20
2019-04-22T03:16:08.025Z,60.30
2019-04-22T03:18:46.896Z,60.20
2019-04-22T03:28:58.685Z,59.40
2019-04-22T03:37:21.439Z,59.10
2019-04-22T03:39:53.490Z,59.10
2019-04-22T03:42:10.018Z,57.70
2019-04-22T03:45:00.546Z,58.90
2019-04-22T03:47:47.827Z,59.20
2019-04-22T03:52:27.757Z,54.20
2019-04-22T03:57:49.771Z,52.30
2019-04-22T04:03:06.881Z,58.50
2019-04-22T04:05:57.659Z,58.40
2019-04-22T04:08:35.666Z,54.00
2019-04-22T04:11:07.058Z,58.20
2019-04-22T04:16:26.746Z,58.70
2019-04-22T04:19:02.627Z,57.50
2019-04-22T04:21:33.199Z,56.50
2019-04-22T04:24:29.586Z,57.50
2019-04-22T04:26:59.143Z,58.60
2019-04-22T04:42:43.681Z,58.90
2019-04-22T04:45:31.682Z,59.50
2019-04-22T04:47:55.270Z,59.60
2019-04-22T04:50:27.145Z,58.20
2019-04-22T04:53:14.450Z,55.30
2019-04-22T04:55:35.141Z,58.50
2019-04-22T04:58:36.585Z,56.00
2019-04-22T05:01:10.933Z,59.60
2019-04-22T05:03:39.918Z,59.90
2019-04-22T05:06:05.989Z,59.90
2019-04-22T05:11:16.251Z,52.60
2019-04-22T05:21:22.424Z,57.10
2019-04-22T05:26:44.802Z,57.70
2019-04-22T05:29:14.902Z,58.60
2019-04-22T05:31:52.339Z,53.00
2019-04-22T05:34:22.826Z,57.70
2019-04-22T05:36:52.850Z,56.50
2019-04-22T05:39:32.683Z,56.30
2019-04-22T05:42:10.382Z,52.20
2019-04-22T05:44:44.010Z,48.60
2019-04-22T05:47:14.680Z,49.20
2019-04-22T05:49:41.625Z,53.60
2019-04-22T05:52:20.351Z,48.40
2019-04-22T05:55:03.320Z,50.00
2019-04-22T05:57:45.713Z,53.20
2019-04-22T06:00:17.865Z,47.50
2019-04-22T06:05:17.167Z,46.70
2019-04-22T06:07:55.703Z,46.50
2019-04-22T06:10:33.174Z,48.10
2019-04-22T06:13:01.011Z,46.90
2019-04-22T06:15:36.196Z,51.70
2019-04-22T06:23:34.593Z,47.60
2019-04-22T06:31:15.735Z,46.90
2019-04-22T06:33:56.746Z,48.20
2019-04-22T06:36:34.478Z,45.10
2019-04-22T06:39:01.555Z,49.30
2019-04-22T06:41:33.267Z,44.00
2019-04-22T06:44:10.953Z,50.00
2019-04-22T06:46:39.759Z,47.40
2019-04-22T06:49:32.798Z,43.30
2019-04-22T06:52:08.026Z,47.50
2019-04-22T06:54:35.982Z,42.10
2019-04-22T06:57:06.274Z,41.60
2019-04-22T06:59:45.755Z,48.80
2019-04-22T07:02:20.589Z,48.00
2019-04-22T07:04:49.412Z,46.10
2019-04-22T07:07:24.075Z,49.10
2019-04-22T07:10:09.639Z,47.30
2019-04-22T07:12:34.723Z,42.60
2019-04-22T07:15:12.785Z,44.10
2019-04-22T07:17:49.117Z,43.00
2019-04-22T07:20:18.016Z,43.40
2019-04-22T07:22:45.375Z,47.70
2019-04-22T07:25:23.430Z,43.10
2019-04-22T07:28:02.058Z,42.30
2019-04-22T07:30:56.159Z,39.70
2019-04-22T07:35:57.472Z,44.10
2019-04-22T07:38:43.830Z,47.00
2019-04-22T07:41:34.468Z,42.60
2019-04-22T07:46:50.094Z,42.30
2019-04-22T07:49:18.379Z,46.10
2019-04-22T07:51:54.255Z,44.80
2019-04-22T07:54:29.232Z,43.00
2019-04-22T07:57:16.419Z,46.00
2019-04-22T07:59:43.720Z,46.60
2019-04-22T08:02:16.188Z,45.30
2019-04-22T08:05:08.812Z,42.80
2019-04-22T08:07:29.990Z,46.30
2019-04-22T08:10:08.478Z,44.80
2019-04-22T08:12:38.627Z,43.60
2019-04-22T08:15:12.560Z,47.70
2019-04-22T08:20:23.822Z,45.20
2019-04-22T08:22:57.639Z,46.90
2019-04-22T08:25:33.436Z,48.80
2019-04-22T08:28:03.485Z,49.00
2019-04-22T08:30:44.476Z,47.90
2019-04-22T08:33:15.947Z,50.30
2019-04-22T08:36:04.428Z,50.60
2019-04-22T08:38:24.168Z,49.30
2019-04-22T08:46:34.074Z,52.30
2019-04-22T08:48:59.061Z,52.20
2019-04-22T08:51:35.938Z,52.50
2019-04-22T08:54:12.159Z,51.50
2019-04-22T08:57:06.806Z,52.60
2019-04-22T08:59:18.006Z,49.40
2019-04-22T09:01:59.353Z,52.30
2019-04-22T09:04:48.950Z,53.40
2019-04-22T09:09:55.658Z,52.60
2019-04-22T09:12:46.889Z,53.90
2019-04-22T09:15:03.944Z,53.40
2019-04-22T09:17:40.164Z,53.40
2019-04-22T09:20:21.723Z,53.60
2019-04-22T09:25:36.026Z,52.90
2019-04-22T09:28:17.538Z,55.00
2019-04-22T09:30:57.198Z,55.20
2019-04-22T09:33:27.811Z,55.50
2019-04-22T09:36:00.150Z,54.60
2019-04-22T09:38:38.356Z,54.10
2019-04-22T09:41:13.912Z,54.20
2019-04-22T09:46:32.724Z,56.20
2019-04-22T09:49:09.700Z,56.70
2019-04-22T09:51:37.159Z,56.30
2019-04-22T09:54:19.769Z,57.60
2019-04-22T09:56:47.586Z,57.50
2019-04-22T09:59:20.481Z,57.80
2019-04-22T10:02:10.242Z,58.10
2019-04-22T10:04:34.954Z,57.70
2019-04-22T10:06:59.582Z,57.50
2019-04-22T10:09:53.131Z,57.30
2019-04-22T10:12:25.049Z,57.10
2019-04-22T10:15:00.554Z,57.30
2019-04-22T10:17:32.347Z,56.90
2019-04-22T10:20:10.193Z,56.40
2019-04-22T10:22:46.499Z,57.40
2019-04-22T10:25:21.462Z,57.30
2019-04-22T10:27:55.495Z,57.30
2019-04-22T10:30:33.318Z,57.10
2019-04-22T10:33:00.782Z,57.40
2019-04-22T10:35:17.152Z,57.40
2019-04-22T10:37:46.160Z,57.30
2019-04-22T10:40:21.764Z,57.60
2019-04-22T10:42:54.187Z,57.60
2019-04-22T10:45:28.187Z,57.60
2019-04-22T10:48:01.597Z,57.80
2019-04-22T10:50:43.073Z,58.00
2019-04-22T10:53:17.718Z,57.90
2019-04-22T10:55:51.552Z,58.00
2019-04-22T10:58:24.895Z,58.10
2019-04-22T11:00:58.198Z,58.70
2019-04-22T11:03:33.048Z,59.70
2019-04-22T11:06:05.553Z,58.70
2019-04-22T11:08:45.826Z,58.50
2019-04-22T11:11:26.345Z,58.70
2019-04-22T11:13:47.488Z,59.00
2019-04-22T11:16:21.307Z,58.90
2019-04-22T11:18:53.909Z,59.70
2019-04-22T11:21:27.441Z,59.20
2019-04-22T11:24:00.747Z,59.10
2019-04-22T11:26:34.537Z,59.60
2019-04-22T11:29:07.716Z,59.70
2019-04-22T11:31:42.055Z,59.20
2019-04-22T11:34:15.328Z,59.40
2019-04-22T11:36:48.081Z,59.50
2019-04-22T11:39:21.684Z,60.00
2019-04-22T11:41:54.239Z,60.60
2019-04-22T11:44:27.657Z,60.20
2019-04-22T11:47:01.422Z,60.10
2019-04-22T11:49:36.110Z,60.50
2019-04-22T11:52:10.863Z,60.90
2019-04-22T11:54:46.499Z,60.60
2019-04-22T11:57:19.038Z,60.90
2019-04-22T11:59:51.568Z,61.80
2019-04-22T12:02:25.395Z,61.70
2019-04-22T12:04:59.012Z,61.50
2019-04-22T12:07:33.575Z,65.80
2019-04-22T12:10:20.041Z,62.80
2019-04-22T12:12:39.712Z,62.10
2019-04-22T12:15:13.240Z,61.90
2019-04-22T12:17:46.212Z,63.80
2019-04-22T12:20:21.761Z,62.20
2019-04-22T12:22:56.741Z,68.70
2019-04-22T12:25:39.734Z,64.30
2019-04-22T12:28:11.068Z,64.40
2019-04-22T12:30:43.682Z,65.50
2019-04-22T12:33:15.208Z,65.00
2019-04-22T12:35:48.672Z,65.40
2019-04-22T12:38:22.061Z,67.30
2019-04-22T12:40:59.286Z,66.40
2019-04-22T12:43:29.842Z,68.30
2019-04-22T12:46:02.457Z,68.20
2019-04-22T12:48:35.141Z,67.30
2019-04-22T12:51:09.064Z,68.00
2019-04-22T12:53:42.280Z,68.30
2019-04-22T12:56:15.393Z,68.90
2019-04-22T12:58:49.658Z,69.00
2019-04-22T13:01:24.464Z,71.60
2019-04-22T13:04:03.175Z,70.20
2019-04-22T13:06:32.058Z,70.70
2019-04-22T13:09:06.630Z,70.50
2019-04-22T13:11:40.719Z,69.80
2019-04-22T13:14:14.798Z,70.90
2019-04-22T13:16:47.402Z,70.60
2019-04-22T13:19:23.058Z,70.20
2019-04-22T13:21:56.445Z,70.50
2019-04-22T13:24:30.052Z,71.40
2019-04-22T13:27:03.283Z,71.60
2019-04-22T13:29:37.232Z,71.80
2019-04-22T13:32:16.566Z,73.30
2019-04-22T13:34:54.101Z,73.70
2019-04-22T13:37:23.409Z,72.30
2019-04-22T13:39:56.880Z,74.10
2019-04-22T13:42:30.112Z,79.40
2019-04-22T13:45:04.129Z,73.80
2019-04-22T13:47:55.729Z,73.60
2019-04-22T13:50:56.433Z,77.10
2019-04-22T13:53:34.313Z,76.50
2019-04-22T13:58:08.093Z,75.30
2019-04-22T14:00:36.356Z,75.90
2019-04-22T14:03:12.769Z,77.30
2019-04-22T14:05:48.835Z,75.70
2019-04-22T14:08:23.048Z,74.20
2019-04-22T14:11:13.186Z,74.20
2019-04-22T14:13:34.115Z,75.80
2019-04-22T14:16:09.033Z,75.20
2019-04-22T14:18:44.592Z,75.60
2019-04-22T14:21:16.871Z,77.90
2019-04-22T14:23:54.197Z,79.30
2019-04-22T14:26:28.482Z,78.60
2019-04-22T14:29:01.877Z,80.10
2019-04-22T14:31:34.329Z,75.90
2019-04-22T14:34:08.138Z,80.00
2019-04-22T14:36:41.639Z,77.20
2019-04-22T14:39:15.672Z,76.80
2019-04-22T14:42:12.739Z,75.80
2019-04-22T14:45:13.429Z,80.00
2019-04-22T14:47:19.814Z,77.10
2019-04-22T14:49:56.010Z,76.50
2019-04-22T14:52:27.791Z,77.60
2019-04-22T14:54:51.813Z,82.00
2019-04-22T14:57:15.057Z,78.20
2019-04-22T14:59:51.545Z,77.20
2019-04-22T15:02:25.537Z,83.70
2019-04-22T15:04:58.416Z,76.80
2019-04-22T15:07:31.191Z,78.20
2019-04-22T15:10:04.228Z,76.80
2019-04-22T15:12:45.684Z,76.80
2019-04-22T15:15:34.402Z,83.00
2019-04-22T15:18:13.409Z,81.80
2019-04-22T15:20:52.346Z,81.20
2019-04-22T15:23:24.843Z,76.90
2019-04-22T15:25:58.793Z,77.80
2019-04-22T15:28:33.287Z,80.50
2019-04-22T15:31:05.711Z,78.10
2019-04-22T15:33:39.564Z,82.50
2019-04-22T15:36:12.479Z,76.70
2019-04-22T15:38:45.386Z,76.50
2019-04-22T15:41:24.851Z,76.40
2019-04-22T15:43:59.703Z,80.90
2019-04-22T15:46:34.987Z,77.50
2019-04-22T15:49:09.788Z,78.40
2019-04-22T15:51:42.901Z,77.80
2019-04-22T15:54:16.145Z,77.50
2019-04-22T15:56:48.878Z,77.20
2019-04-22T15:59:41.689Z,76.60
2019-04-22T16:01:59.846Z,81.60
2019-04-22T16:04:32.548Z,78.00
2019-04-22T16:07:05.109Z,78.30
2019-04-22T16:09:39.348Z,77.30
2019-04-22T16:12:21.564Z,78.50
2019-04-22T16:14:53.037Z,80.50
2019-04-22T16:17:22.375Z,78.50
2019-04-22T16:19:55.261Z,77.50
2019-04-22T16:22:27.446Z,79.30
2019-04-22T16:25:19.403Z,84.50
2019-04-22T16:27:52.797Z,81.40
2019-04-22T16:30:27.786Z,82.20
2019-04-22T16:33:05.610Z,80.50
2019-04-22T16:35:38.244Z,85.30
2019-04-22T16:38:10.867Z,85.50
2019-04-22T16:40:46.049Z,81.60
2019-04-22T16:43:19.468Z,85.10
2019-04-22T16:45:53.815Z,86.10
2019-04-22T16:48:27.451Z,81.40
2019-04-22T16:51:02.218Z,86.30
2019-04-22T16:53:36.973Z,80.10
2019-04-22T16:56:10.997Z,79.00
2019-04-22T16:58:43.375Z,77.60
2019-04-22T17:01:34.795Z,78.10
2019-04-22T17:04:18.816Z,78.10
2019-04-22T17:06:53.319Z,77.00
2019-04-22T17:09:25.988Z,77.60
2019-04-22T17:11:58.797Z,76.90
2019-04-22T17:14:37.252Z,78.10
2019-04-22T17:17:06.565Z,80.90
2019-04-22T17:19:39.628Z,83.50
2019-04-22T17:22:13.089Z,83.00
2019-04-22T17:24:47.829Z,87.00
2019-04-22T17:27:20.381Z,81.30
2019-04-22T17:29:52.587Z,86.50
2019-04-22T17:32:27.329Z,79.10
2019-04-22T17:34:59.338Z,86.90
2019-04-22T17:37:37.112Z,80.50
2019-04-22T17:40:27.746Z,81.80
2019-04-22T17:43:06.943Z,80.90
2019-04-22T17:45:45.081Z,80.00
2019-04-22T17:48:30.565Z,83.20
2019-04-22T17:51:20.630Z,80.00
2019-04-22T17:53:46.710Z,82.20
2019-04-22T17:56:15.619Z,80.60
2019-04-22T17:58:51.198Z,80.00
2019-04-22T18:01:29.711Z,82.00
2019-04-22T18:03:48.941Z,80.50
2019-04-22T18:06:51.593Z,85.90
2019-04-22T18:09:19.416Z,80.50
2019-04-22T18:11:51.390Z,80.60
2019-04-22T18:17:00.236Z,79.80
2019-04-22T18:19:32.556Z,80.90
2019-04-22T18:22:00.834Z,80.50
2019-04-22T18:24:28.142Z,81.80
2019-04-22T18:27:30.467Z,80.40
2019-04-22T18:29:48.536Z,83.90
2019-04-22T18:32:17.972Z,81.20
2019-04-22T18:35:07.264Z,86.30
2019-04-22T18:37:40.301Z,86.70
2019-04-22T18:40:16.266Z,83.30
2019-04-22T18:42:52.424Z,82.60
2019-04-22T18:45:37.346Z,82.40
2019-04-22T18:47:52.211Z,82.30
2019-04-22T18:50:41.431Z,84.70
2019-04-22T18:53:16.019Z,85.00
2019-04-22T18:55:38.754Z,84.50
2019-04-22T18:58:16.803Z,82.50
2019-04-22T19:00:46.238Z,82.20
2019-04-22T19:03:25.399Z,84.70
2019-04-22T19:06:25.991Z,82.70
2019-04-22T19:08:50.254Z,87.60
2019-04-22T19:11:16.676Z,87.00
2019-04-22T19:14:03.635Z,87.20
2019-04-22T19:19:20.500Z,88.60
2019-04-22T19:21:37.779Z,84.50
2019-04-22T19:24:09.544Z,88.80
2019-04-22T19:26:59.073Z,89.50
2019-04-22T19:29:18.621Z,82.00
2019-04-22T19:31:52.355Z,88.80
2019-04-22T19:34:25.622Z,87.90
2019-04-22T19:36:57.271Z,82.50
2019-04-22T19:39:28.787Z,85.60
2019-04-22T19:42:17.011Z,88.60
2019-04-22T19:44:46.645Z,83.70
2019-04-22T19:47:25.170Z,86.20
2019-04-22T19:52:24.750Z,90.00
2019-04-22T19:54:54.961Z,85.70
2019-04-22T19:57:32.575Z,85.90
2019-04-22T20:00:11.069Z,83.90
2019-04-22T20:02:51.178Z,89.80
2019-04-22T20:05:37.172Z,83.00
2019-04-22T20:08:07.267Z,87.80
2019-04-22T20:10:38.063Z,90.10
2019-04-22T20:13:15.134Z,90.40
2019-04-22T20:15:37.060Z,87.30
2019-04-22T20:18:45.252Z,84.50
2019-04-22T20:21:00.998Z,84.80
2019-04-22T20:23:24.259Z,88.70
2019-04-22T20:25:56.103Z,89.90
2019-04-22T20:28:37.237Z,90.30
2019-04-22T20:31:14.792Z,90.00
2019-04-22T20:33:54.776Z,90.10
2019-04-22T20:36:39.197Z,84.80
2019-04-22T20:38:49.523Z,83.90
2019-04-22T20:41:22.755Z,82.70
2019-04-22T20:44:04.946Z,84.30
2019-04-22T20:46:31.620Z,87.30
2019-04-22T20:49:04.979Z,90.00
2019-04-22T20:51:54.313Z,87.90
2019-04-22T20:54:19.361Z,85.30
2019-04-22T20:56:45.095Z,85.90
2019-04-22T20:59:23.774Z,83.50
2019-04-22T21:01:56.329Z,83.90
2019-04-22T21:04:22.183Z,90.10
2019-04-22T21:07:01.914Z,89.00
2019-04-22T21:09:41.004Z,90.50
2019-04-22T21:12:12.599Z,88.60
2019-04-22T21:14:52.873Z,88.20
2019-04-22T21:17:28.271Z,90.10
2019-04-22T21:20:00.581Z,88.20
2019-04-22T21:22:33.553Z,86.40
2019-04-22T21:25:02.182Z,90.20
2019-04-22T21:27:45.112Z,88.80
2019-04-22T21:30:10.728Z,90.70
2019-04-22T21:32:45.029Z,85.70
2019-04-22T21:35:38.263Z,86.20
2019-04-22T21:37:58.359Z,84.90
2019-04-22T21:40:32.408Z,90.10
2019-04-22T21:43:07.110Z,90.70
2019-04-22T21:45:31.039Z,87.50
2019-04-22T21:48:20.595Z,90.70
2019-04-22T21:53:29.205Z,86.80
2019-04-22T21:56:00.264Z,84.50
2019-04-22T21:58:39.709Z,84.20
2019-04-22T22:01:33.043Z,88.50
2019-04-22T22:04:03.622Z,84.00
2019-04-22T22:06:23.549Z,87.90
2019-04-22T22:09:13.025Z,90.40
2019-04-22T22:11:34.661Z,87.10
2019-04-22T22:14:13.584Z,90.00
2019-04-22T22:16:38.932Z,87.10
2019-04-22T22:19:17.730Z,88.50
2019-04-22T22:21:58.655Z,90.50
2019-04-22T22:24:32.607Z,84.30
2019-04-22T22:27:04.548Z,87.10
2019-04-22T22:29:49.327Z,86.20
2019-04-22T22:32:11.714Z,90.00
2019-04-22T22:34:38.869Z,85.70
2019-04-22T22:37:07.675Z,89.40
2019-04-22T22:39:41.760Z,86.70
2019-04-22T22:42:03.761Z,86.20
2019-04-22T22:44:42.194Z,88.20
2019-04-22T22:47:31.367Z,84.70
2019-04-22T22:50:02.994Z,88.40
2019-04-22T22:52:51.684Z,90.00
2019-04-22T22:55:13.415Z,85.30
2019-04-22T22:57:54.123Z,90.00
2019-04-22T23:00:22.496Z,84.70
2019-04-22T23:03:13.701Z,91.40
2019-04-22T23:05:34.013Z,86.00
2019-04-22T23:08:07.784Z,85.30
2019-04-22T23:10:44.336Z,86.80
2019-04-22T23:13:15.626Z,90.90
2019-04-22T23:15:43.009Z,86.00
2019-04-22T23:17:59.593Z,89.60
2019-04-22T23:20:37.545Z,90.00
2019-04-22T23:23:26.775Z,91.20
2019-04-22T23:26:02.232Z,90.00
2019-04-22T23:28:38.780Z,90.90
2019-04-22T23:31:23.632Z,91.40
2019-04-22T23:34:06.719Z,91.60
2019-04-22T23:36:54.239Z,91.30
2019-04-22T23:39:35.622Z,90.00
2019-04-22T23:42:06.307Z,90.50
2019-04-22T23:44:38.163Z,91.50
2019-04-22T23:47:06.094Z,91.70
2019-04-22T23:49:53.571Z,86.00
2019-04-22T23:52:24.383Z,86.70
2019-04-22T23:55:11.519Z,87.60
2019-04-22T23:57:42.457Z,90.30
